createdAt,value
2023-04-27T00:00:14.026Z,2976.00
2023-04-27T00:01:14.074Z,2956.00
2023-04-27T00:02:14.217Z,2947.00
2023-04-27T00:03:14.331Z,2951.00
2023-04-27T00:04:14.502Z,2966.00
2023-04-27T00:05:14.562Z,2954.00
2023-04-27T00:06:14.348Z,2961.00
2023-04-27T00:07:14.340Z,2943.00
2023-04-27T00:08:14.367Z,2932.00
2023-04-27T00:09:14.580Z,2951.00
2023-04-27T00:10:14.480Z,2928.00
2023-04-27T00:11:14.523Z,2916.00
2023-04-27T00:12:14.578Z,2917.00
2023-04-27T00:13:14.625Z,2934.00
2023-04-27T00:14:14.637Z,2920.00
2023-04-27T00:15:14.684Z,2911.00
2023-04-27T00:16:14.763Z,2915.00
2023-04-27T00:17:14.767Z,2921.00
2023-04-27T00:18:14.816Z,2913.00
2023-04-27T00:19:15.276Z,2910.00
2023-04-27T00:20:14.953Z,2891.00
2023-04-27T00:21:15.017Z,2917.00
2023-04-27T00:22:15.091Z,2892.00
2023-04-27T00:23:15.145Z,2930.00
2023-04-27T00:24:15.200Z,2914.00
2023-04-27T00:25:15.293Z,2891.00
2023-04-27T00:26:15.316Z,2894.00
2023-04-27T00:27:15.409Z,2881.00
2023-04-27T00:28:15.459Z,2885.00
2023-04-27T00:29:15.681Z,2878.00
2023-04-27T00:30:15.569Z,2877.00
2023-04-27T00:31:15.694Z,2895.00
2023-04-27T00:32:15.776Z,2872.00
2023-04-27T00:33:15.797Z,2869.00
2023-04-27T00:34:15.853Z,2870.00
2023-04-27T00:35:15.879Z,2870.00
2023-04-27T00:36:15.953Z,2869.00
2023-04-27T00:37:15.995Z,2844.00
2023-04-27T00:38:16.071Z,2860.00
2023-04-27T00:39:16.334Z,2865.00
2023-04-27T00:40:16.245Z,2850.00
2023-04-27T00:41:16.313Z,2847.00
2023-04-27T00:42:16.321Z,2859.00
2023-04-27T00:43:16.399Z,2861.00
2023-04-27T00:44:16.454Z,2846.00
2023-04-27T00:45:16.505Z,2831.00
2023-04-27T00:46:16.632Z,2833.00
2023-04-27T00:47:16.562Z,2846.00
2023-04-27T00:48:16.645Z,2839.00
2023-04-27T00:49:16.709Z,2826.00
2023-04-27T00:50:16.761Z,2825.00
2023-04-27T00:51:16.797Z,2836.00
2023-04-27T00:52:16.872Z,2829.00
2023-04-27T00:53:16.897Z,2825.00
2023-04-27T00:54:16.969Z,2824.00
2023-04-27T00:55:17.005Z,2829.00
2023-04-27T00:56:17.049Z,2810.00
2023-04-27T00:57:17.089Z,2824.00
2023-04-27T00:58:17.127Z,2815.00
2023-04-27T00:59:17.176Z,2813.00
2023-04-27T01:00:17.213Z,2812.00
2023-04-27T01:01:17.215Z,2795.00
2023-04-27T01:02:17.343Z,2813.00
2023-04-27T01:03:17.418Z,2797.00
2023-04-27T01:04:17.446Z,2802.00
2023-04-27T01:05:17.391Z,2785.00
2023-04-27T01:06:17.411Z,2799.00
2023-04-27T01:07:17.482Z,2784.00
2023-04-27T01:08:17.489Z,2792.00
2023-04-27T01:09:17.487Z,2780.00
2023-04-27T01:10:17.529Z,2775.00
2023-04-27T01:11:17.598Z,2785.00
2023-04-27T01:12:17.591Z,2784.00
2023-04-27T01:13:17.629Z,2776.00
2023-04-27T01:14:17.675Z,2773.00
2023-04-27T01:15:17.743Z,2767.00
2023-04-27T01:16:17.755Z,2763.00
2023-04-27T01:17:17.857Z,2774.00
2023-04-27T01:18:17.914Z,2764.00
2023-04-27T01:19:17.902Z,2763.00
2023-04-27T01:20:17.960Z,2762.00
2023-04-27T01:21:18.033Z,2746.00
2023-04-27T01:22:18.021Z,2749.00
2023-04-27T01:23:18.075Z,2761.00
2023-04-27T01:24:18.128Z,2745.00
2023-04-27T01:25:18.204Z,2751.00
2023-04-27T01:26:18.246Z,2731.00
2023-04-27T01:27:18.315Z,2733.00
2023-04-27T01:28:18.359Z,2736.00
2023-04-27T01:29:18.403Z,2738.00
2023-04-27T01:30:18.430Z,2746.00
2023-04-27T01:31:18.529Z,2738.00
2023-04-27T01:32:18.473Z,2724.00
2023-04-27T01:33:18.523Z,2729.00
2023-04-27T01:34:18.581Z,2725.00
2023-04-27T01:35:18.601Z,2720.00
2023-04-27T01:36:18.629Z,2721.00
2023-04-27T01:37:18.687Z,2722.00
2023-04-27T01:38:18.698Z,2727.00
2023-04-27T01:39:18.709Z,2707.00
2023-04-27T01:40:18.767Z,2718.00
2023-04-27T01:41:18.762Z,2709.00
2023-04-27T01:42:18.807Z,2706.00
2023-04-27T01:43:18.853Z,2703.00
2023-04-27T01:44:18.865Z,2709.00
2023-04-27T01:45:18.894Z,2699.00
2023-04-27T01:46:18.908Z,2696.00
2023-04-27T01:47:18.968Z,2693.00
2023-04-27T01:48:18.970Z,2692.00
2023-04-27T01:49:19.005Z,2686.00
2023-04-27T01:50:19.019Z,2689.00
2023-04-27T01:51:19.096Z,2690.00
2023-04-27T01:52:19.114Z,2690.00
2023-04-27T01:53:19.163Z,2692.00
2023-04-27T01:54:19.224Z,2687.00
2023-04-27T01:55:19.213Z,2678.00
2023-04-27T01:56:19.253Z,2684.00
2023-04-27T01:57:19.300Z,2681.00
2023-04-27T01:58:19.335Z,2675.00
2023-04-27T01:59:19.366Z,2667.00
2023-04-27T02:00:19.363Z,2675.00
2023-04-27T02:01:19.436Z,2667.00
2023-04-27T02:02:19.484Z,2667.00
2023-04-27T02:03:19.574Z,2662.00
2023-04-27T02:04:19.688Z,2661.00
2023-04-27T02:05:19.515Z,2659.00
2023-04-27T02:06:19.556Z,2669.00
2023-04-27T02:07:19.589Z,2653.00
2023-04-27T02:08:19.610Z,2650.00
2023-04-27T02:09:19.605Z,2652.00
2023-04-27T02:10:19.671Z,2648.00
2023-04-27T02:11:19.676Z,2651.00
2023-04-27T02:12:19.776Z,2646.00
2023-04-27T02:13:19.755Z,2633.00
2023-04-27T02:14:19.792Z,2645.00
2023-04-27T02:15:19.828Z,2628.00
2023-04-27T02:16:19.851Z,2635.00
2023-04-27T02:17:19.901Z,2635.00
2023-04-27T02:18:19.900Z,2623.00
2023-04-27T02:19:19.904Z,2632.00
2023-04-27T02:20:19.983Z,2621.00
2023-04-27T02:21:20.029Z,2615.00
2023-04-27T02:22:20.028Z,2618.00
2023-04-27T02:23:20.062Z,2610.00
2023-04-27T02:24:20.107Z,2623.00
2023-04-27T02:25:20.173Z,2631.00
2023-04-27T02:26:20.154Z,2620.00
2023-04-27T02:27:20.226Z,2609.00
2023-04-27T02:28:20.232Z,2616.00
2023-04-27T02:29:20.305Z,2608.00
2023-04-27T02:30:20.258Z,2609.00
2023-04-27T02:31:20.360Z,2608.00
2023-04-27T02:32:20.308Z,2597.00
2023-04-27T02:33:20.327Z,2595.00
2023-04-27T02:34:20.360Z,2601.00
2023-04-27T02:35:20.369Z,2588.00
2023-04-27T02:36:20.396Z,2604.00
2023-04-27T02:37:20.447Z,2582.00
2023-04-27T02:38:20.430Z,2587.00
2023-04-27T02:39:20.481Z,2593.00
2023-04-27T02:40:20.537Z,2586.00
2023-04-27T02:41:20.579Z,2581.00
2023-04-27T02:42:20.601Z,2581.00
2023-04-27T02:43:20.586Z,2570.00
2023-04-27T02:44:20.582Z,2562.00
2023-04-27T02:45:20.624Z,2578.00
2023-04-27T02:46:20.642Z,2552.00
2023-04-27T02:47:20.641Z,2562.00
2023-04-27T02:48:20.641Z,2560.00
2023-04-27T02:49:20.697Z,2553.00
2023-04-27T02:50:20.734Z,2557.00
2023-04-27T02:51:20.770Z,2545.00
2023-04-27T02:52:20.798Z,2571.00
2023-04-27T02:53:20.866Z,2555.00
2023-04-27T02:54:20.826Z,2551.00
2023-04-27T02:55:20.894Z,2558.00
2023-04-27T02:56:20.937Z,2545.00
2023-04-27T02:57:21.006Z,2537.00
2023-04-27T02:58:21.003Z,2534.00
2023-04-27T02:59:21.028Z,2546.00
2023-04-27T03:00:20.995Z,2542.00
2023-04-27T03:01:21.048Z,2535.00
2023-04-27T03:02:21.136Z,2542.00
2023-04-27T03:03:21.205Z,2535.00
2023-04-27T03:04:21.255Z,2527.00
2023-04-27T03:05:21.054Z,2522.00
2023-04-27T03:06:21.106Z,2536.00
2023-04-27T03:07:21.113Z,2521.00
2023-04-27T03:08:21.146Z,2520.00
2023-04-27T03:09:21.146Z,2512.00
2023-04-27T03:10:21.171Z,2511.00
2023-04-27T03:11:21.199Z,2522.00
2023-04-27T03:12:21.216Z,2502.00
2023-04-27T03:13:21.191Z,2518.00
2023-04-27T03:14:21.199Z,2506.00
2023-04-27T03:15:21.215Z,2503.00
2023-04-27T03:16:21.251Z,2517.00
2023-04-27T03:17:21.222Z,2512.00
2023-04-27T03:18:21.239Z,2501.00
2023-04-27T03:19:21.282Z,2497.00
2023-04-27T03:20:21.321Z,2504.00
2023-04-27T03:21:21.293Z,2499.00
2023-04-27T03:22:21.354Z,2497.00
2023-04-27T03:23:21.369Z,2503.00
2023-04-27T03:24:21.362Z,2491.00
2023-04-27T03:25:21.410Z,2486.00
2023-04-27T03:26:21.374Z,2482.00
2023-04-27T03:27:21.839Z,2490.00
2023-04-27T03:28:21.416Z,2479.00
2023-04-27T03:29:21.401Z,2475.00
2023-04-27T03:30:21.392Z,2472.00
2023-04-27T03:31:21.410Z,2468.00
2023-04-27T03:32:21.415Z,2465.00
2023-04-27T03:33:21.432Z,2477.00
2023-04-27T03:34:21.434Z,2460.00
2023-04-27T03:35:21.431Z,2464.00
2023-04-27T03:36:21.442Z,2454.00
2023-04-27T03:37:21.470Z,2460.00
2023-04-27T03:38:21.453Z,2458.00
2023-04-27T03:39:21.431Z,2468.00
2023-04-27T03:40:21.430Z,2468.00
2023-04-27T03:41:21.456Z,2456.00
2023-04-27T03:42:21.414Z,2441.00
2023-04-27T03:43:21.431Z,2443.00
2023-04-27T03:44:21.465Z,2451.00
2023-04-27T03:45:21.470Z,2447.00
2023-04-27T03:46:21.472Z,2439.00
2023-04-27T03:47:21.465Z,2442.00
2023-04-27T03:48:21.476Z,2433.00
2023-04-27T03:49:21.488Z,2423.00
2023-04-27T03:50:21.527Z,2417.00
2023-04-27T03:51:22.336Z,2421.00
2023-04-27T03:52:46.019Z,500.00
2023-04-27T03:53:46.022Z,500.00
2023-04-27T03:54:46.005Z,500.00
2023-04-27T03:55:46.037Z,500.00
2023-04-27T03:56:45.998Z,500.00
2023-04-27T03:57:46.015Z,500.00
2023-04-27T03:58:46.023Z,504.00
2023-04-27T03:59:46.015Z,505.00
2023-04-27T04:00:46.018Z,504.00
2023-04-27T04:01:46.053Z,506.00
2023-04-27T04:02:46.074Z,502.00
2023-04-27T04:03:46.240Z,501.00
2023-04-27T04:04:46.260Z,506.00
2023-04-27T04:05:46.019Z,504.00
2023-04-27T04:06:46.102Z,508.00
2023-04-27T04:07:46.048Z,505.00
2023-04-27T04:08:46.042Z,502.00
2023-04-27T04:09:46.044Z,502.00
2023-04-27T04:10:46.008Z,504.00
2023-04-27T04:11:46.019Z,501.00
2023-04-27T04:12:46.059Z,505.00
2023-04-27T04:13:46.047Z,503.00
2023-04-27T04:14:46.020Z,511.00
2023-04-27T04:15:46.059Z,506.00
2023-04-27T04:16:46.045Z,501.00
2023-04-27T04:17:46.066Z,503.00
2023-04-27T04:18:46.071Z,501.00
2023-04-27T04:19:46.021Z,504.00
2023-04-27T04:20:46.061Z,506.00
2023-04-27T04:21:46.025Z,507.00
2023-04-27T04:22:46.044Z,508.00
2023-04-27T04:23:46.041Z,506.00
2023-04-27T04:24:46.047Z,505.00
2023-04-27T04:25:46.022Z,504.00
2023-04-27T04:26:46.058Z,502.00
2023-04-27T04:27:46.058Z,502.00
2023-04-27T04:28:46.017Z,508.00
2023-04-27T04:29:46.039Z,510.00
2023-04-27T04:30:46.055Z,502.00
2023-04-27T04:31:46.091Z,503.00
2023-04-27T04:32:46.117Z,504.00
2023-04-27T04:33:46.053Z,504.00
2023-04-27T04:34:46.070Z,509.00
2023-04-27T04:35:46.079Z,502.00
2023-04-27T04:36:46.071Z,503.00
2023-04-27T04:37:46.086Z,503.00
2023-04-27T04:38:46.096Z,507.00
2023-04-27T04:39:46.097Z,503.00
2023-04-27T04:40:46.238Z,500.00
2023-04-27T04:41:46.089Z,509.00
2023-04-27T04:42:46.093Z,504.00
2023-04-27T04:43:46.086Z,502.00
2023-04-27T04:44:46.093Z,500.00
2023-04-27T04:45:46.065Z,503.00
2023-04-27T04:46:46.149Z,510.00
2023-04-27T04:47:46.120Z,510.00
2023-04-27T04:48:46.131Z,513.00
2023-04-27T04:49:46.104Z,510.00
2023-04-27T04:50:46.119Z,509.00
2023-04-27T04:51:46.115Z,513.00
2023-04-27T04:52:46.134Z,514.00
2023-04-27T04:53:46.129Z,510.00
2023-04-27T04:54:46.134Z,511.00
2023-04-27T04:55:46.145Z,507.00
2023-04-27T04:56:46.127Z,513.00
2023-04-27T04:57:46.138Z,511.00
2023-04-27T04:58:46.123Z,507.00
2023-04-27T04:59:46.122Z,511.00
2023-04-27T05:00:46.148Z,513.00
2023-04-27T05:01:46.153Z,514.00
2023-04-27T05:02:46.227Z,511.00
2023-04-27T05:03:46.307Z,512.00
2023-04-27T05:04:46.334Z,511.00
2023-04-27T05:05:46.216Z,513.00
2023-04-27T05:06:46.330Z,514.00
2023-04-27T05:07:46.278Z,514.00
2023-04-27T05:08:46.306Z,513.00
2023-04-27T05:09:46.364Z,518.00
2023-04-27T05:10:46.383Z,517.00
2023-04-27T05:11:46.427Z,518.00
2023-04-27T05:12:46.483Z,516.00
2023-04-27T05:13:46.557Z,518.00
2023-04-27T05:14:46.572Z,521.00
2023-04-27T05:15:46.663Z,518.00
2023-04-27T05:16:46.666Z,518.00
2023-04-27T05:17:46.804Z,514.00
2023-04-27T05:18:46.727Z,522.00
2023-04-27T05:19:46.785Z,513.00
2023-04-27T05:20:46.838Z,517.00
2023-04-27T05:21:46.868Z,520.00
2023-04-27T05:22:46.896Z,519.00
2023-04-27T05:23:46.899Z,520.00
2023-04-27T05:24:46.959Z,514.00
2023-04-27T05:25:46.940Z,522.00
2023-04-27T05:26:46.988Z,520.00
2023-04-27T05:27:47.026Z,520.00
2023-04-27T05:28:47.085Z,524.00
2023-04-27T05:29:47.093Z,524.00
2023-04-27T05:30:47.707Z,522.00
2023-04-27T05:31:47.226Z,525.00
2023-04-27T05:32:47.305Z,523.00
2023-04-27T05:33:47.180Z,528.00
2023-04-27T05:34:49.228Z,531.00
2023-04-27T05:35:47.263Z,527.00
2023-04-27T05:36:47.353Z,531.00
2023-04-27T05:37:47.342Z,543.00
2023-04-27T05:38:47.340Z,547.00
2023-04-27T05:39:47.397Z,560.00
2023-04-27T05:40:47.469Z,557.00
2023-04-27T05:41:47.486Z,578.00
2023-04-27T05:42:47.508Z,581.00
2023-04-27T05:43:47.512Z,576.00
2023-04-27T05:44:47.566Z,593.00
2023-04-27T05:45:47.668Z,600.00
2023-04-27T05:46:47.647Z,625.00
2023-04-27T05:47:47.683Z,646.00
2023-04-27T05:48:47.646Z,674.00
2023-04-27T05:49:47.716Z,800.00
2023-04-27T05:50:47.786Z,765.00
2023-04-27T05:51:47.859Z,821.00
2023-04-27T05:52:47.935Z,846.00
2023-04-27T05:53:48.014Z,840.00
2023-04-27T05:54:48.090Z,973.00
2023-04-27T05:55:48.146Z,958.00
2023-04-27T05:56:48.195Z,1187.00
2023-04-27T05:57:54.468Z,1132.00
2023-04-27T05:58:49.233Z,1059.00
2023-04-27T05:59:48.297Z,1006.00
2023-04-27T06:00:48.244Z,970.00
2023-04-27T06:01:48.268Z,941.00
2023-04-27T06:02:48.443Z,953.00
2023-04-27T06:03:48.424Z,913.00
2023-04-27T06:04:48.319Z,909.00
2023-04-27T06:05:48.283Z,917.00
2023-04-27T06:06:48.284Z,917.00
2023-04-27T06:07:48.354Z,925.00
2023-04-27T06:08:49.227Z,922.00
2023-04-27T06:09:48.392Z,926.00
2023-04-27T06:10:48.412Z,895.00
2023-04-27T06:11:48.471Z,883.00
2023-04-27T06:12:48.491Z,876.00
2023-04-27T06:13:48.555Z,849.00
2023-04-27T06:14:48.555Z,841.00
2023-04-27T06:15:48.593Z,869.00
2023-04-27T06:16:48.576Z,865.00
2023-04-27T06:17:48.663Z,865.00
2023-04-27T06:18:48.623Z,862.00
2023-04-27T06:19:48.725Z,842.00
2023-04-27T06:20:48.817Z,822.00
2023-04-27T06:21:48.868Z,836.00
2023-04-27T06:22:48.988Z,834.00
2023-04-27T06:23:49.060Z,847.00
2023-04-27T06:24:49.133Z,857.00
2023-04-27T06:25:49.207Z,847.00
2023-04-27T06:26:49.349Z,842.00
2023-04-27T06:27:49.385Z,821.00
2023-04-27T06:28:49.501Z,813.00
2023-04-27T06:29:49.538Z,797.00
2023-04-27T06:30:49.632Z,803.00
2023-04-27T06:31:49.754Z,769.00
2023-04-27T06:32:49.769Z,733.00
2023-04-27T06:33:49.825Z,739.00
2023-04-27T06:34:49.915Z,778.00
2023-04-27T06:35:49.967Z,822.00
2023-04-27T06:36:50.084Z,870.00
2023-04-27T06:37:50.161Z,826.00
2023-04-27T06:38:50.233Z,841.00
2023-04-27T06:39:50.315Z,821.00
2023-04-27T06:40:50.402Z,844.00
2023-04-27T06:41:50.432Z,873.00
2023-04-27T06:42:50.552Z,871.00
2023-04-27T06:43:50.580Z,896.00
2023-04-27T06:44:50.695Z,887.00
2023-04-27T06:45:50.804Z,944.00
2023-04-27T06:46:50.859Z,828.00
2023-04-27T06:47:50.867Z,831.00
2023-04-27T06:48:50.910Z,749.00
2023-04-27T06:49:50.942Z,784.00
2023-04-27T06:50:51.003Z,786.00
2023-04-27T06:51:51.051Z,749.00
2023-04-27T06:52:51.137Z,761.00
2023-04-27T06:53:51.238Z,729.00
2023-04-27T06:54:51.315Z,724.00
2023-04-27T06:55:51.406Z,786.00
2023-04-27T06:56:51.498Z,851.00
2023-04-27T06:57:51.542Z,899.00
2023-04-27T06:58:51.706Z,919.00
2023-04-27T06:59:51.669Z,942.00
2023-04-27T07:00:51.730Z,953.00
2023-04-27T07:01:51.841Z,995.00
2023-04-27T07:02:51.862Z,1013.00
2023-04-27T07:03:52.069Z,1034.00
2023-04-27T07:04:52.023Z,1057.00
2023-04-27T07:05:52.033Z,1158.00
2023-04-27T07:06:52.090Z,1158.00
2023-04-27T07:07:52.136Z,1147.00
2023-04-27T07:08:52.202Z,1174.00
2023-04-27T07:09:52.252Z,1188.00
2023-04-27T07:10:52.304Z,1249.00
2023-04-27T07:11:52.339Z,1268.00
2023-04-27T07:12:52.425Z,1272.00
2023-04-27T07:13:52.433Z,1304.00
2023-04-27T07:14:54.277Z,1317.00
2023-04-27T07:15:52.548Z,1341.00
2023-04-27T07:16:52.585Z,1379.00
2023-04-27T07:17:52.629Z,1387.00
2023-04-27T07:18:52.640Z,1431.00
2023-04-27T07:19:52.677Z,1457.00
2023-04-27T07:20:52.733Z,1491.00
2023-04-27T07:21:52.740Z,1529.00
2023-04-27T07:22:52.751Z,1569.00
2023-04-27T07:23:54.175Z,1592.00
2023-04-27T07:24:52.790Z,1614.00
2023-04-27T07:25:52.816Z,1635.00
2023-04-27T07:26:52.821Z,1654.00
2023-04-27T07:27:53.288Z,1661.00
2023-04-27T07:28:52.891Z,1685.00
2023-04-27T07:29:52.910Z,1694.00
2023-04-27T07:30:52.945Z,1698.00
2023-04-27T07:31:53.065Z,1735.00
2023-04-27T07:32:53.009Z,1748.00
2023-04-27T07:33:52.940Z,1792.00
2023-04-27T07:34:54.396Z,1793.00
2023-04-27T07:35:53.002Z,1798.00
2023-04-27T07:36:53.024Z,1816.00
2023-04-27T07:37:52.999Z,1828.00
2023-04-27T07:38:53.273Z,1939.00
2023-04-27T07:39:53.116Z,2026.00
2023-04-27T07:40:53.040Z,2044.00
2023-04-27T07:41:53.084Z,2019.00
2023-04-27T07:42:53.069Z,2017.00
2023-04-27T07:43:53.271Z,2005.00
2023-04-27T07:44:53.119Z,2012.00
2023-04-27T07:45:53.178Z,1996.00
2023-04-27T07:46:53.147Z,2003.00
2023-04-27T07:47:53.158Z,2009.00
2023-04-27T07:48:53.193Z,2002.00
2023-04-27T07:49:53.207Z,2037.00
2023-04-27T07:50:53.231Z,2043.00
2023-04-27T07:51:53.242Z,2027.00
2023-04-27T07:52:53.349Z,2015.00
2023-04-27T07:53:53.334Z,2006.00
2023-04-27T07:54:53.340Z,2000.00
2023-04-27T07:55:53.381Z,1979.00
2023-04-27T07:56:53.455Z,1984.00
2023-04-27T07:57:53.448Z,1986.00
2023-04-27T07:58:53.759Z,1984.00
2023-04-27T07:59:53.588Z,1977.00
2023-04-27T08:00:53.589Z,1984.00
2023-04-27T08:01:59.199Z,1980.00
2023-04-27T08:02:54.927Z,1980.00
2023-04-27T08:03:53.887Z,1980.00
2023-04-27T08:04:54.000Z,1976.00
2023-04-27T08:05:54.157Z,1951.00
2023-04-27T08:06:54.392Z,1955.00
2023-04-27T08:07:54.348Z,1961.00
2023-04-27T08:08:53.788Z,1958.00
2023-04-27T08:09:53.664Z,1937.00
2023-04-27T08:10:53.689Z,1951.00
2023-04-27T08:11:53.691Z,1938.00
2023-04-27T08:12:53.712Z,1929.00
2023-04-27T08:13:53.717Z,1935.00
2023-04-27T08:14:53.736Z,1938.00
2023-04-27T08:15:54.297Z,1924.00
2023-04-27T08:16:53.789Z,1918.00
2023-04-27T08:17:53.791Z,1910.00
2023-04-27T08:18:53.807Z,1895.00
2023-04-27T08:19:53.819Z,1899.00
2023-04-27T08:20:53.881Z,1903.00
2023-04-27T08:21:53.917Z,1896.00
2023-04-27T08:22:53.994Z,1904.00
2023-04-27T08:23:54.055Z,1893.00
2023-04-27T08:24:54.091Z,1887.00
2023-04-27T08:25:54.159Z,1885.00
2023-04-27T08:26:54.227Z,1878.00
2023-04-27T08:27:54.252Z,1866.00
2023-04-27T08:28:54.313Z,1869.00
2023-04-27T08:29:54.375Z,1878.00
2023-04-27T08:30:54.596Z,1900.00
2023-04-27T08:31:56.653Z,1880.00
2023-04-27T08:32:54.798Z,1940.00
2023-04-27T08:33:54.806Z,1879.00
2023-04-27T08:34:54.698Z,1920.00
2023-04-27T08:35:54.757Z,1910.00
2023-04-27T08:36:54.796Z,1939.00
2023-04-27T08:37:54.848Z,1933.00
2023-04-27T08:38:55.306Z,1862.00
2023-04-27T08:39:54.942Z,1772.00
2023-04-27T08:40:54.993Z,1526.00
2023-04-27T08:41:55.081Z,1255.00
2023-04-27T08:42:55.126Z,996.00
2023-04-27T08:43:55.652Z,667.00
2023-04-27T08:44:55.232Z,624.00
2023-04-27T08:45:55.339Z,587.00
2023-04-27T08:46:55.333Z,570.00
2023-04-27T08:47:55.331Z,501.00
2023-04-27T08:48:55.408Z,463.00
2023-04-27T08:49:55.446Z,526.00
2023-04-27T08:50:55.547Z,498.00
2023-04-27T08:51:55.594Z,533.00
2023-04-27T08:52:55.661Z,500.00
2023-04-27T08:53:55.723Z,542.00
2023-04-27T08:54:55.766Z,486.00
2023-04-27T08:55:56.779Z,520.00
2023-04-27T08:56:55.972Z,620.00
2023-04-27T08:57:56.015Z,733.00
2023-04-27T08:58:56.073Z,898.00
2023-04-27T08:59:56.072Z,1109.00
2023-04-27T09:00:56.089Z,1172.00
2023-04-27T09:01:56.132Z,1268.00
2023-04-27T09:02:56.234Z,1346.00
2023-04-27T09:03:56.556Z,1400.00
2023-04-27T09:04:56.456Z,1481.00
2023-04-27T09:06:03.432Z,1539.00
2023-04-27T09:06:57.379Z,1542.00
2023-04-27T09:07:56.298Z,1556.00
2023-04-27T09:08:56.297Z,1591.00
2023-04-27T09:09:56.323Z,1665.00
2023-04-27T09:10:56.318Z,1786.00
2023-04-27T09:11:56.350Z,1840.00
2023-04-27T09:12:56.329Z,1890.00
2023-04-27T09:13:56.308Z,1931.00
2023-04-27T09:14:56.353Z,1969.00
2023-04-27T09:15:56.319Z,2011.00
2023-04-27T09:16:56.326Z,2055.00
2023-04-27T09:17:56.470Z,2102.00
2023-04-27T09:18:56.346Z,2131.00
2023-04-27T09:19:56.327Z,2157.00
2023-04-27T09:20:56.324Z,2176.00
2023-04-27T09:21:56.328Z,2201.00
2023-04-27T09:22:56.336Z,2223.00
2023-04-27T09:23:56.347Z,2253.00
2023-04-27T09:24:56.364Z,2276.00
2023-04-27T09:25:56.333Z,2307.00
2023-04-27T09:26:56.692Z,2326.00
2023-04-27T09:27:56.398Z,2368.00
2023-04-27T09:28:56.414Z,2394.00
2023-04-27T09:29:56.386Z,2386.00
2023-04-27T09:30:56.476Z,2430.00
2023-04-27T09:31:56.549Z,2475.00
2023-04-27T09:32:56.476Z,2501.00
2023-04-27T09:33:56.486Z,2501.00
2023-04-27T09:34:56.457Z,2492.00
2023-04-27T09:35:56.418Z,2541.00
2023-04-27T09:36:56.455Z,2516.00
2023-04-27T09:37:56.415Z,2557.00
2023-04-27T09:38:56.811Z,2574.00
2023-04-27T09:39:56.409Z,2585.00
2023-04-27T09:40:56.396Z,2588.00
2023-04-27T09:41:56.426Z,2627.00
2023-04-27T09:42:56.436Z,2633.00
2023-04-27T09:43:57.906Z,2629.00
2023-04-27T09:44:56.403Z,2642.00
2023-04-27T09:45:56.412Z,2651.00
2023-04-27T09:46:56.392Z,2585.00
2023-04-27T09:47:56.468Z,2197.00
2023-04-27T09:48:56.434Z,2130.00
2023-04-27T09:49:56.409Z,2044.00
2023-04-27T09:50:56.417Z,2008.00
2023-04-27T09:51:56.464Z,2003.00
2023-04-27T09:52:56.448Z,1905.00
2023-04-27T09:53:56.517Z,1770.00
2023-04-27T09:54:56.687Z,1736.00
2023-04-27T09:55:56.553Z,1657.00
2023-04-27T09:56:56.546Z,1614.00
2023-04-27T09:57:56.576Z,1549.00
2023-04-27T09:58:58.703Z,1515.00
2023-04-27T09:59:56.656Z,1518.00
2023-04-27T10:00:56.735Z,1390.00
2023-04-27T10:01:56.745Z,1381.00
2023-04-27T10:02:57.576Z,1435.00
2023-04-27T10:03:56.876Z,1401.00
2023-04-27T10:04:56.889Z,1340.00
2023-04-27T10:05:56.854Z,1321.00
2023-04-27T10:06:57.937Z,1297.00
2023-04-27T10:07:56.878Z,1378.00
2023-04-27T10:08:56.918Z,1592.00
2023-04-27T10:09:56.953Z,1652.00
2023-04-27T10:10:56.996Z,1760.00
2023-04-27T10:11:57.026Z,1805.00
2023-04-27T10:12:57.036Z,1844.00
2023-04-27T10:13:57.048Z,1842.00
2023-04-27T10:14:57.082Z,1880.00
2023-04-27T10:15:57.100Z,1918.00
2023-04-27T10:16:57.139Z,1944.00
2023-04-27T10:17:57.169Z,1952.00
2023-04-27T10:18:57.072Z,1967.00
2023-04-27T10:19:58.202Z,1979.00
2023-04-27T10:20:57.085Z,1984.00
2023-04-27T10:21:57.106Z,2001.00
2023-04-27T10:22:57.073Z,2024.00
2023-04-27T10:23:57.125Z,2016.00
2023-04-27T10:24:57.128Z,2032.00
2023-04-27T10:25:57.109Z,2041.00
2023-04-27T10:26:57.077Z,2064.00
2023-04-27T10:27:57.080Z,2050.00
2023-04-27T10:28:57.091Z,2080.00
2023-04-27T10:29:57.124Z,2095.00
2023-04-27T10:30:57.115Z,2085.00
2023-04-27T10:31:57.082Z,2105.00
2023-04-27T10:32:57.108Z,2118.00
2023-04-27T10:33:57.149Z,2131.00
2023-04-27T10:34:57.067Z,2148.00
2023-04-27T10:35:57.098Z,2174.00
2023-04-27T10:36:57.068Z,2178.00
2023-04-27T10:37:57.074Z,2192.00
2023-04-27T10:38:57.081Z,2190.00
2023-04-27T10:39:57.377Z,2219.00
2023-04-27T10:40:57.117Z,2216.00
2023-04-27T10:41:57.102Z,2223.00
2023-04-27T10:42:57.072Z,2242.00
2023-04-27T10:43:57.121Z,2237.00
2023-04-27T10:44:57.159Z,2252.00
2023-04-27T10:45:57.159Z,2243.00
2023-04-27T10:46:57.186Z,2234.00
2023-04-27T10:47:57.219Z,2243.00
2023-04-27T10:48:57.129Z,2237.00
2023-04-27T10:49:57.133Z,2232.00
2023-04-27T10:50:57.158Z,2225.00
2023-04-27T10:51:57.148Z,2222.00
2023-04-27T10:52:57.697Z,2216.00
2023-04-27T10:53:57.194Z,2190.00
2023-04-27T10:54:57.185Z,2182.00
2023-04-27T10:55:57.161Z,2189.00
2023-04-27T10:56:57.184Z,2164.00
2023-04-27T10:57:57.250Z,2157.00
2023-04-27T10:58:57.230Z,2151.00
2023-04-27T10:59:57.251Z,2138.00
2023-04-27T11:00:57.356Z,2134.00
2023-04-27T11:01:57.320Z,2124.00
2023-04-27T11:02:57.422Z,2125.00
2023-04-27T11:03:57.359Z,2107.00
2023-04-27T11:04:57.432Z,2100.00
2023-04-27T11:05:58.111Z,2093.00
2023-04-27T11:06:57.352Z,2096.00
2023-04-27T11:07:57.374Z,2081.00
2023-04-27T11:08:57.351Z,2076.00
2023-04-27T11:09:57.394Z,2064.00
2023-04-27T11:10:57.380Z,2064.00
2023-04-27T11:11:57.419Z,2049.00
2023-04-27T11:12:57.420Z,2055.00
2023-04-27T11:13:57.414Z,2039.00
2023-04-27T11:14:57.400Z,2032.00
2023-04-27T11:15:57.546Z,2025.00
2023-04-27T11:16:57.454Z,2040.00
2023-04-27T11:17:57.484Z,2024.00
2023-04-27T11:18:59.614Z,2013.00
2023-04-27T11:19:57.471Z,2005.00
2023-04-27T11:20:57.463Z,2001.00
2023-04-27T11:21:57.444Z,2007.00
2023-04-27T11:22:57.562Z,1986.00
2023-04-27T11:23:57.470Z,1989.00
2023-04-27T11:24:57.497Z,1981.00
2023-04-27T11:25:57.524Z,1980.00
2023-04-27T11:26:57.520Z,1992.00
2023-04-27T11:27:57.553Z,1971.00
2023-04-27T11:28:57.553Z,1969.00
2023-04-27T11:29:57.870Z,1973.00
2023-04-27T11:30:57.593Z,1950.00
2023-04-27T11:31:57.735Z,1934.00
2023-04-27T11:32:57.621Z,1938.00
2023-04-27T11:33:57.633Z,1931.00
2023-04-27T11:34:59.583Z,1926.00
2023-04-27T11:35:57.641Z,1922.00
2023-04-27T11:37:07.139Z,1925.00
2023-04-27T11:37:58.676Z,1925.00
2023-04-27T11:38:57.715Z,1917.00
2023-04-27T11:39:57.709Z,1909.00
2023-04-27T11:40:57.652Z,1906.00
2023-04-27T11:41:57.688Z,1903.00
2023-04-27T11:42:57.648Z,1899.00
2023-04-27T11:43:57.629Z,1893.00
2023-04-27T11:44:57.643Z,1894.00
2023-04-27T11:45:57.626Z,1880.00
2023-04-27T11:46:57.744Z,1874.00
2023-04-27T11:47:57.677Z,1882.00
2023-04-27T11:48:57.602Z,1860.00
2023-04-27T11:49:57.623Z,1856.00
2023-04-27T11:50:57.616Z,1854.00
2023-04-27T11:51:57.635Z,1860.00
2023-04-27T11:52:57.583Z,1848.00
2023-04-27T11:53:57.564Z,1843.00
2023-04-27T11:54:57.546Z,1839.00
2023-04-27T11:55:57.551Z,1825.00
2023-04-27T11:56:57.537Z,1826.00
2023-04-27T11:57:57.536Z,1835.00
2023-04-27T11:58:57.536Z,1828.00
2023-04-27T11:59:57.540Z,1820.00
2023-04-27T12:00:57.523Z,1814.00
2023-04-27T12:01:57.549Z,1789.00
2023-04-27T12:02:57.708Z,1795.00
2023-04-27T12:04:00.036Z,1783.00
2023-04-27T12:04:57.655Z,1784.00
2023-04-27T12:06:04.153Z,1784.00
2023-04-27T12:06:58.474Z,1785.00
2023-04-27T12:07:57.475Z,1785.00
2023-04-27T12:08:57.446Z,1773.00
2023-04-27T12:09:59.501Z,1775.00
2023-04-27T12:10:57.437Z,1775.00
2023-04-27T12:11:57.432Z,1750.00